createdAt,value
2018-11-04T00:00:45.184Z,1019.32
2018-11-04T00:01:45.214Z,1019.25
2018-11-04T00:02:45.115Z,1019.23
2018-11-04T00:03:45.079Z,1019.21
2018-11-04T00:04:45.049Z,1019.19
2018-11-04T00:05:45.014Z,1019.20
2018-11-04T00:06:44.977Z,1019.19
2018-11-04T00:07:44.975Z,1019.18
2018-11-04T00:08:44.911Z,1019.17
2018-11-04T00:09:44.877Z,1019.14
2018-11-04T00:10:44.842Z,1019.14
2018-11-04T00:11:44.806Z,1019.12
2018-11-04T00:12:44.774Z,1019.10
2018-11-04T00:13:44.739Z,1019.10
2018-11-04T00:14:44.706Z,1019.09
2018-11-04T00:15:44.670Z,1019.08
2018-11-04T00:16:44.637Z,1019.07
2018-11-04T00:17:44.602Z,1019.08
2018-11-04T00:18:44.567Z,1019.04
2018-11-04T00:19:44.534Z,1019.03
2018-11-04T00:20:44.498Z,1019.01
2018-11-04T00:21:44.464Z,1019.01
2018-11-04T00:22:44.437Z,1018.98
2018-11-04T00:23:44.395Z,1019.00
2018-11-04T00:24:44.363Z,1018.98
2018-11-04T00:25:44.328Z,1019.01
2018-11-04T00:26:44.341Z,1018.96
2018-11-04T00:27:44.259Z,1019.03
2018-11-04T00:28:44.225Z,1019.02
2018-11-04T00:29:44.237Z,1019.04
2018-11-04T00:30:44.161Z,1019.00
2018-11-04T00:31:44.121Z,1019.02
2018-11-04T00:32:44.094Z,1019.04
2018-11-04T00:33:44.053Z,1019.03
2018-11-04T00:34:44.069Z,1018.99
2018-11-04T00:35:43.985Z,1019.02
2018-11-04T00:36:43.950Z,1019.01
2018-11-04T00:37:43.918Z,1019.03
2018-11-04T00:38:43.882Z,1018.98
2018-11-04T00:39:43.846Z,1018.99
2018-11-04T00:40:43.814Z,1018.95
2018-11-04T00:41:43.779Z,1018.94
2018-11-04T00:42:43.744Z,1018.94
2018-11-04T00:43:43.709Z,1018.88
2018-11-04T00:44:43.676Z,1018.92
2018-11-04T00:45:43.644Z,1018.88
2018-11-04T00:46:43.607Z,1018.89
2018-11-04T00:47:43.573Z,1018.90
2018-11-04T00:48:43.538Z,1018.95
2018-11-04T00:49:43.505Z,1018.89
2018-11-04T00:50:43.469Z,1018.87
2018-11-04T00:51:43.434Z,1018.82
2018-11-04T00:52:43.403Z,1018.79
2018-11-04T00:53:43.371Z,1018.77
2018-11-04T00:54:43.333Z,1018.77
2018-11-04T00:55:43.299Z,1018.77
2018-11-04T00:56:43.263Z,1018.74
2018-11-04T00:57:43.228Z,1018.73
2018-11-04T00:58:43.195Z,1018.72
2018-11-04T00:59:43.160Z,1018.67
2018-11-04T01:00:43.127Z,1018.62
2018-11-04T01:01:43.093Z,1018.61
2018-11-04T01:02:43.059Z,1018.62
2018-11-04T01:03:43.024Z,1018.61
2018-11-04T01:04:42.989Z,1018.58
2018-11-04T01:05:42.955Z,1018.57
2018-11-04T01:06:42.919Z,1018.56
2018-11-04T01:07:42.886Z,1018.56
2018-11-04T01:08:42.853Z,1018.56
2018-11-04T01:09:42.817Z,1018.57
2018-11-04T01:10:42.782Z,1018.60
2018-11-04T01:11:42.748Z,1018.59
2018-11-04T01:12:42.713Z,1018.54
2018-11-04T01:13:42.681Z,1018.56
2018-11-04T01:14:42.645Z,1018.58
2018-11-04T01:15:42.611Z,1018.56
2018-11-04T01:16:42.576Z,1018.54
2018-11-04T01:17:42.543Z,1018.51
2018-11-04T01:18:42.508Z,1018.48
2018-11-04T01:19:42.474Z,1018.50
2018-11-04T01:20:42.440Z,1018.48
2018-11-04T01:21:42.404Z,1018.46
2018-11-04T01:22:42.378Z,1018.46
2018-11-04T01:23:42.336Z,1018.44
2018-11-04T01:24:43.076Z,1018.38
2018-11-04T01:25:42.267Z,1018.40
2018-11-04T01:26:42.232Z,1018.38
2018-11-04T01:27:42.198Z,1018.38
2018-11-04T01:28:42.164Z,1018.35
2018-11-04T01:29:42.130Z,1018.31
2018-11-04T01:30:42.094Z,1018.36
2018-11-04T01:31:42.060Z,1018.31
2018-11-04T01:32:42.033Z,1018.31
2018-11-04T01:33:41.990Z,1018.32
2018-11-04T01:34:41.958Z,1018.31
2018-11-04T01:35:41.923Z,1018.31
2018-11-04T01:36:41.887Z,1018.27
2018-11-04T01:37:41.853Z,1018.26
2018-11-04T01:38:41.818Z,1018.25
2018-11-04T01:39:41.785Z,1018.31
2018-11-04T01:40:41.750Z,1018.29
2018-11-04T01:41:41.716Z,1018.28
2018-11-04T01:42:41.684Z,1018.31
2018-11-04T01:43:41.646Z,1018.25
2018-11-04T01:44:41.613Z,1018.24
2018-11-04T01:45:41.576Z,1018.23
2018-11-04T01:46:41.543Z,1018.23
2018-11-04T01:47:41.508Z,1018.20
2018-11-04T01:48:41.473Z,1018.18
2018-11-04T01:49:41.439Z,1018.18
2018-11-04T01:50:41.402Z,1018.11
2018-11-04T01:51:41.371Z,1018.09
2018-11-04T01:52:41.340Z,1018.08
2018-11-04T01:53:41.301Z,1018.03
2018-11-04T01:54:41.266Z,1018.06
2018-11-04T01:55:41.233Z,1018.04
2018-11-04T01:56:41.196Z,1018.00
2018-11-04T01:57:41.163Z,1018.00
2018-11-04T01:58:41.131Z,1018.02
2018-11-04T01:59:41.094Z,1018.03
2018-11-04T02:00:41.059Z,1018.00
2018-11-04T02:01:41.026Z,1017.95
2018-11-04T02:02:40.990Z,1017.96
2018-11-04T02:03:40.956Z,1017.91
2018-11-04T02:04:40.921Z,1017.88
2018-11-04T02:05:40.888Z,1017.87
2018-11-04T02:06:40.851Z,1017.86
2018-11-04T02:07:40.818Z,1017.84
2018-11-04T02:08:40.784Z,1017.81
2018-11-04T02:09:40.749Z,1017.83
2018-11-04T02:10:40.715Z,1017.81
2018-11-04T02:11:40.686Z,1017.77
2018-11-04T02:12:40.646Z,1017.73
2018-11-04T02:13:40.610Z,1017.70
2018-11-04T02:14:40.575Z,1017.67
2018-11-04T02:15:40.542Z,1017.69
2018-11-04T02:16:40.509Z,1017.68
2018-11-04T02:17:40.474Z,1017.70
2018-11-04T02:18:40.439Z,1017.69
2018-11-04T02:19:40.402Z,1017.63
2018-11-04T02:20:40.368Z,1017.66
2018-11-04T02:21:40.335Z,1017.60
2018-11-04T02:22:40.301Z,1017.62
2018-11-04T02:23:40.266Z,1017.57
2018-11-04T02:24:40.232Z,1017.55
2018-11-04T02:25:40.198Z,1017.56
2018-11-04T02:26:40.163Z,1017.55
2018-11-04T02:27:40.129Z,1017.57
2018-11-04T02:28:40.095Z,1017.53
2018-11-04T02:29:40.582Z,1017.56
2018-11-04T02:30:40.024Z,1017.50
2018-11-04T02:31:39.990Z,1017.50
2018-11-04T02:32:39.957Z,1017.50
2018-11-04T02:33:39.919Z,1017.48
2018-11-04T02:34:39.889Z,1017.52
2018-11-04T02:35:39.854Z,1017.50
2018-11-04T02:36:39.816Z,1017.49
2018-11-04T02:37:39.783Z,1017.45
2018-11-04T02:38:39.748Z,1017.42
2018-11-04T02:39:39.713Z,1017.38
2018-11-04T02:40:39.679Z,1017.38
2018-11-04T02:41:39.649Z,1017.35
2018-11-04T02:42:39.607Z,1017.38
2018-11-04T02:43:39.575Z,1017.30
2018-11-04T02:44:39.542Z,1017.28
2018-11-04T02:45:39.510Z,1017.26
2018-11-04T02:46:39.478Z,1017.23
2018-11-04T02:47:39.439Z,1017.23
2018-11-04T02:48:39.402Z,1017.18
2018-11-04T02:49:39.368Z,1017.17
2018-11-04T02:50:39.334Z,1017.16
2018-11-04T02:51:39.304Z,1017.12
2018-11-04T02:52:39.267Z,1017.09
2018-11-04T02:53:39.234Z,1017.15
2018-11-04T02:54:39.207Z,1017.16
2018-11-04T02:55:39.163Z,1017.13
2018-11-04T02:56:39.128Z,1017.12
2018-11-04T02:57:39.094Z,1017.16
2018-11-04T02:58:39.062Z,1017.12
2018-11-04T02:59:39.022Z,1017.13
2018-11-04T03:00:38.989Z,1017.13
2018-11-04T03:01:38.984Z,1017.08
2018-11-04T03:02:38.920Z,1017.11
2018-11-04T03:03:38.888Z,1017.07
2018-11-04T03:04:38.854Z,1017.08
2018-11-04T03:05:38.818Z,1017.03
2018-11-04T03:06:38.785Z,1017.05
2018-11-04T03:07:38.751Z,1017.07
2018-11-04T03:08:38.715Z,1017.07
2018-11-04T03:09:38.683Z,1017.11
2018-11-04T03:10:38.647Z,1017.07
2018-11-04T03:11:38.614Z,1017.04
2018-11-04T03:12:38.577Z,1017.06
2018-11-04T03:13:38.546Z,1016.99
2018-11-04T03:14:38.509Z,1016.99
2018-11-04T03:15:38.475Z,1016.97
2018-11-04T03:16:38.441Z,1016.94
2018-11-04T03:17:38.408Z,1016.96
2018-11-04T03:18:38.373Z,1016.95
2018-11-04T03:19:38.340Z,1016.97
2018-11-04T03:20:38.304Z,1016.92
2018-11-04T03:21:38.270Z,1016.89
2018-11-04T03:22:38.238Z,1016.90
2018-11-04T03:23:38.202Z,1016.88
2018-11-04T03:24:38.195Z,1016.88
2018-11-04T03:25:38.134Z,1016.88
2018-11-04T03:26:38.101Z,1016.87
2018-11-04T03:27:38.066Z,1016.89
2018-11-04T03:28:38.032Z,1016.90
2018-11-04T03:29:37.998Z,1016.85
2018-11-04T03:30:37.964Z,1016.84
2018-11-04T03:31:37.931Z,1016.77
2018-11-04T03:32:37.906Z,1016.80
2018-11-04T03:33:37.862Z,1016.78
2018-11-04T03:34:37.827Z,1016.78
2018-11-04T03:35:37.794Z,1016.79
2018-11-04T03:36:37.760Z,1016.78
2018-11-04T03:37:37.722Z,1016.74
2018-11-04T03:38:37.691Z,1016.74
2018-11-04T03:39:37.661Z,1016.69
2018-11-04T03:40:37.624Z,1016.74
2018-11-04T03:41:37.590Z,1016.75
2018-11-04T03:42:37.556Z,1016.75
2018-11-04T03:43:37.522Z,1016.70
2018-11-04T03:44:37.488Z,1016.72
2018-11-04T03:45:37.455Z,1016.71
2018-11-04T03:46:37.420Z,1016.70
2018-11-04T03:47:37.388Z,1016.67
2018-11-04T03:48:37.354Z,1016.66
2018-11-04T03:49:37.319Z,1016.66
2018-11-04T03:50:37.285Z,1016.63
2018-11-04T03:51:37.252Z,1016.61
2018-11-04T03:52:37.220Z,1016.58
2018-11-04T03:53:37.186Z,1016.57
2018-11-04T03:54:37.152Z,1016.57
2018-11-04T03:55:37.119Z,1016.61
2018-11-04T03:56:37.085Z,1016.58
2018-11-04T03:57:37.053Z,1016.57
2018-11-04T03:58:37.018Z,1016.53
2018-11-04T03:59:36.984Z,1016.51
2018-11-04T04:00:36.952Z,1016.55
2018-11-04T04:01:36.918Z,1016.50
2018-11-04T04:02:36.883Z,1016.51
2018-11-04T04:03:36.851Z,1016.45
2018-11-04T04:04:36.819Z,1016.45
2018-11-04T04:05:36.785Z,1016.40
2018-11-04T04:06:36.756Z,1016.39
2018-11-04T04:07:36.719Z,1016.41
2018-11-04T04:08:36.688Z,1016.36
2018-11-04T04:09:36.654Z,1016.35
2018-11-04T04:10:36.623Z,1016.35
2018-11-04T04:11:36.587Z,1016.33
2018-11-04T04:12:36.557Z,1016.29
2018-11-04T04:13:36.521Z,1016.33
2018-11-04T04:14:36.487Z,1016.28
2018-11-04T04:15:36.457Z,1016.30
2018-11-04T04:16:36.422Z,1016.32
2018-11-04T04:17:36.390Z,1016.26
2018-11-04T04:18:36.358Z,1016.21
2018-11-04T04:19:36.325Z,1016.26
2018-11-04T04:20:36.294Z,1016.26
2018-11-04T04:21:36.259Z,1016.19
2018-11-04T04:22:36.228Z,1016.23
2018-11-04T04:23:36.193Z,1016.22
2018-11-04T04:24:36.165Z,1016.24
2018-11-04T04:25:36.128Z,1016.21
2018-11-04T04:26:36.120Z,1016.16
2018-11-04T04:27:36.063Z,1016.17
2018-11-04T04:28:36.030Z,1016.14
2018-11-04T04:29:35.999Z,1016.17
2018-11-04T04:30:35.967Z,1016.20
2018-11-04T04:31:35.934Z,1016.16
2018-11-04T04:32:35.901Z,1016.17
2018-11-04T04:33:35.868Z,1016.18
2018-11-04T04:34:35.835Z,1016.11
2018-11-04T04:35:35.802Z,1016.10
2018-11-04T04:36:35.772Z,1016.15
2018-11-04T04:37:35.737Z,1016.12
2018-11-04T04:38:35.706Z,1016.13
2018-11-04T04:39:35.673Z,1016.11
2018-11-04T04:40:35.640Z,1016.09
2018-11-04T04:41:35.609Z,1016.08
2018-11-04T04:42:35.576Z,1016.09
2018-11-04T04:43:35.543Z,1016.09
2018-11-04T04:44:35.511Z,1016.08
2018-11-04T04:45:35.478Z,1016.11
2018-11-04T04:46:35.444Z,1016.09
2018-11-04T04:47:35.417Z,1016.08
2018-11-04T04:48:35.381Z,1016.08
2018-11-04T04:49:35.349Z,1016.09
2018-11-04T04:50:35.317Z,1016.07
2018-11-04T04:51:35.282Z,1016.05
2018-11-04T04:52:35.255Z,1016.03
2018-11-04T04:53:35.218Z,1016.01
2018-11-04T04:54:35.187Z,1016.00
2018-11-04T04:55:35.154Z,1016.00
2018-11-04T04:56:35.120Z,1015.98
2018-11-04T04:57:35.089Z,1015.98
2018-11-04T04:58:35.056Z,1016.01
2018-11-04T04:59:35.023Z,1015.99
2018-11-04T05:00:34.992Z,1015.97
2018-11-04T05:01:34.959Z,1015.95
2018-11-04T05:02:34.926Z,1015.95
2018-11-04T05:03:34.893Z,1015.92
2018-11-04T05:04:34.861Z,1015.89
2018-11-04T05:05:34.830Z,1015.87
2018-11-04T05:06:34.830Z,1015.89
2018-11-04T05:07:34.763Z,1015.82
2018-11-04T05:08:34.732Z,1015.85
2018-11-04T05:09:34.705Z,1015.88
2018-11-04T05:10:34.666Z,1015.86
2018-11-04T05:11:34.633Z,1015.85
2018-11-04T05:12:34.603Z,1015.81
2018-11-04T05:13:34.571Z,1015.83
2018-11-04T05:14:34.539Z,1015.84
2018-11-04T05:15:34.505Z,1015.81
2018-11-04T05:16:34.473Z,1015.86
2018-11-04T05:17:34.440Z,1015.79
2018-11-04T05:18:34.408Z,1015.81
2018-11-04T05:19:34.374Z,1015.81
2018-11-04T05:20:34.343Z,1015.79
2018-11-04T05:21:34.312Z,1015.81
2018-11-04T05:22:34.279Z,1015.79
2018-11-04T05:23:34.246Z,1015.80
2018-11-04T05:24:34.215Z,1015.82
2018-11-04T05:25:34.184Z,1015.80
2018-11-04T05:26:34.149Z,1015.80
2018-11-04T05:27:34.116Z,1015.82
2018-11-04T05:28:34.086Z,1015.83
2018-11-04T05:29:34.053Z,1015.80
2018-11-04T05:30:34.023Z,1015.80
2018-11-04T05:31:33.988Z,1015.79
2018-11-04T05:32:33.956Z,1015.79
2018-11-04T05:33:33.924Z,1015.78
2018-11-04T05:34:33.890Z,1015.77
2018-11-04T05:35:33.858Z,1015.74
2018-11-04T05:36:33.828Z,1015.79
2018-11-04T05:37:33.795Z,1015.79
2018-11-04T05:38:33.762Z,1015.80
2018-11-04T05:39:33.729Z,1015.76
2018-11-04T05:40:33.698Z,1015.75
2018-11-04T05:41:33.666Z,1015.71
2018-11-04T05:42:33.634Z,1015.71
2018-11-04T05:43:33.607Z,1015.72
2018-11-04T05:44:33.568Z,1015.70
2018-11-04T05:45:33.540Z,1015.72
2018-11-04T05:46:33.503Z,1015.72
2018-11-04T05:47:33.474Z,1015.66
2018-11-04T05:48:33.443Z,1015.66
2018-11-04T05:49:33.408Z,1015.68
2018-11-04T05:50:33.378Z,1015.68
2018-11-04T05:51:33.345Z,1015.69
2018-11-04T05:52:33.318Z,1015.70
2018-11-04T05:53:33.280Z,1015.70
2018-11-04T05:54:33.247Z,1015.72
2018-11-04T05:55:33.215Z,1015.70
2018-11-04T05:56:33.183Z,1015.74
2018-11-04T05:57:33.152Z,1015.74
2018-11-04T05:58:33.117Z,1015.75
2018-11-04T05:59:33.085Z,1015.70
2018-11-04T06:00:33.054Z,1015.71
2018-11-04T06:01:40.438Z,1015.73
2018-11-04T06:03:29.220Z,1015.72
2018-11-04T06:04:26.080Z,1015.70
2018-11-04T06:06:18.901Z,1015.68
2018-11-04T06:07:19.480Z,1015.68
2018-11-04T06:09:11.643Z,1015.73
2018-11-04T06:10:11.604Z,1015.75
2018-11-04T06:12:04.428Z,1015.66
2018-11-04T06:13:04.370Z,1015.73
2018-11-04T06:14:57.168Z,1015.74
2018-11-04T06:15:57.131Z,1015.77
2018-11-04T06:17:50.461Z,1015.81
2018-11-04T06:18:50.393Z,1015.81
2018-11-04T06:20:43.488Z,1015.84
2018-11-04T06:21:43.449Z,1015.83
2018-11-04T06:23:36.268Z,1015.87
2018-11-04T06:24:36.212Z,1015.89
2018-11-04T06:26:29.033Z,1015.90
2018-11-04T06:27:28.976Z,1015.87
2018-11-04T06:29:21.776Z,1015.86
2018-11-04T06:30:21.745Z,1015.84
2018-11-04T06:32:14.557Z,1015.84
2018-11-04T06:33:14.506Z,1015.80
2018-11-04T06:35:07.308Z,1015.83
2018-11-04T06:36:07.269Z,1015.83
2018-11-04T06:38:00.384Z,1015.84
2018-11-04T06:39:00.325Z,1015.87
2018-11-04T06:40:53.484Z,1015.88
2018-11-04T06:41:53.383Z,1015.91
2018-11-04T06:43:46.475Z,1015.88
2018-11-04T06:44:46.440Z,1015.87
2018-11-04T06:46:39.262Z,1015.89
2018-11-04T06:47:39.282Z,1015.89
2018-11-04T06:49:32.007Z,1015.85
2018-11-04T06:50:31.968Z,1015.88
2018-11-04T06:52:25.148Z,1015.89
2018-11-04T06:53:25.081Z,1015.89
2018-11-04T06:55:17.882Z,1015.94
2018-11-04T06:56:17.846Z,1015.94
2018-11-04T06:58:10.669Z,1015.92
2018-11-04T06:59:10.611Z,1015.95
2018-11-04T07:01:03.453Z,1015.94
2018-11-04T07:02:03.375Z,1015.88
2018-11-04T07:03:03.344Z,1015.93
2018-11-04T07:04:03.315Z,1015.92
2018-11-04T07:05:03.284Z,1015.92
2018-11-04T07:06:03.248Z,1015.89
2018-11-04T07:07:03.218Z,1015.89
2018-11-04T07:08:03.186Z,1015.87
2018-11-04T07:09:03.195Z,1015.82
2018-11-04T07:10:03.124Z,1015.81
2018-11-04T07:11:03.091Z,1015.81
2018-11-04T07:12:03.060Z,1015.80
2018-11-04T07:13:03.038Z,1015.77
2018-11-04T07:14:03.003Z,1015.76
2018-11-04T07:15:02.966Z,1015.79
2018-11-04T07:16:02.934Z,1015.79
2018-11-04T07:17:02.903Z,1015.79
2018-11-04T07:18:02.872Z,1015.80
2018-11-04T07:19:02.840Z,1015.81
2018-11-04T07:20:02.904Z,1015.80
2018-11-04T07:21:02.777Z,1015.76
2018-11-04T07:22:02.748Z,1015.76
2018-11-04T07:23:02.717Z,1015.78
2018-11-04T07:24:02.684Z,1015.76
2018-11-04T07:25:02.652Z,1015.77
2018-11-04T07:26:02.621Z,1015.78
2018-11-04T07:27:02.590Z,1015.71
2018-11-04T07:28:02.559Z,1015.76
2018-11-04T07:29:02.529Z,1015.74
2018-11-04T07:30:02.500Z,1015.76
2018-11-04T07:31:02.464Z,1015.76
2018-11-04T07:32:02.510Z,1015.74
2018-11-04T07:33:02.404Z,1015.73
2018-11-04T07:34:02.371Z,1015.77
2018-11-04T07:35:02.344Z,1015.75
2018-11-04T07:36:02.319Z,1015.69
2018-11-04T07:37:02.279Z,1015.75
2018-11-04T07:38:02.248Z,1015.72
2018-11-04T07:39:02.218Z,1015.72
2018-11-04T07:40:02.194Z,1015.69
2018-11-04T07:41:02.157Z,1015.69
2018-11-04T07:42:02.125Z,1015.69
2018-11-04T07:43:02.094Z,1015.66
2018-11-04T07:44:02.078Z,1015.60
2018-11-04T07:45:02.032Z,1015.62
2018-11-04T07:46:02.003Z,1015.60
2018-11-04T07:47:01.970Z,1015.56
2018-11-04T07:48:01.945Z,1015.52
2018-11-04T07:49:01.912Z,1015.54
2018-11-04T07:50:01.876Z,1015.52
2018-11-04T07:51:01.848Z,1015.54
2018-11-04T07:52:01.818Z,1015.51
2018-11-04T07:53:01.786Z,1015.58
2018-11-04T07:54:01.755Z,1015.49
2018-11-04T07:55:01.724Z,1015.52
2018-11-04T07:56:01.693Z,1015.51
2018-11-04T07:57:01.744Z,1015.56
2018-11-04T07:58:01.632Z,1015.54
2018-11-04T07:59:01.602Z,1015.48
2018-11-04T08:00:01.573Z,1015.45
2018-11-04T08:01:01.663Z,1015.44
2018-11-04T08:02:01.509Z,1015.48
2018-11-04T08:03:01.480Z,1015.44
2018-11-04T08:04:01.525Z,1015.43
2018-11-04T08:05:01.416Z,1015.42
2018-11-04T08:06:01.386Z,1015.42
2018-11-04T08:07:01.354Z,1015.40
2018-11-04T08:08:01.325Z,1015.41
2018-11-04T08:09:01.299Z,1015.43
2018-11-04T08:10:01.262Z,1015.37
2018-11-04T08:11:01.236Z,1015.41
2018-11-04T08:12:01.201Z,1015.39
2018-11-04T08:13:01.179Z,1015.39
2018-11-04T08:14:01.142Z,1015.35
2018-11-04T08:15:01.112Z,1015.33
2018-11-04T08:16:01.079Z,1015.42
2018-11-04T08:17:01.047Z,1015.32
2018-11-04T08:18:01.021Z,1015.35
2018-11-04T08:19:00.988Z,1015.39
2018-11-04T08:20:00.957Z,1015.37
2018-11-04T08:21:00.928Z,1015.32
2018-11-04T08:22:00.896Z,1015.31
2018-11-04T08:23:00.865Z,1015.33
2018-11-04T08:24:00.837Z,1015.35
2018-11-04T08:25:00.807Z,1015.28
2018-11-04T08:26:00.777Z,1015.29
2018-11-04T08:27:00.744Z,1015.25
2018-11-04T08:28:00.717Z,1015.22
2018-11-04T08:29:00.682Z,1015.26
2018-11-04T08:30:00.651Z,1015.19
2018-11-04T08:31:00.621Z,1015.19
2018-11-04T08:32:00.592Z,1015.18
2018-11-04T08:33:00.566Z,1015.16
2018-11-04T08:34:00.532Z,1015.13
2018-11-04T08:35:01.028Z,1015.15
2018-11-04T08:36:00.469Z,1015.18
2018-11-04T08:37:00.440Z,1015.14
2018-11-04T08:38:00.410Z,1015.13
2018-11-04T08:39:00.379Z,1015.17
2018-11-04T08:40:00.502Z,1015.17
2018-11-04T08:41:00.319Z,1015.18
2018-11-04T08:42:00.289Z,1015.19
2018-11-04T08:43:00.261Z,1015.21
2018-11-04T08:44:00.233Z,1015.16
2018-11-04T08:45:00.201Z,1015.12
2018-11-04T08:46:00.172Z,1015.06
2018-11-04T08:47:00.139Z,1015.08
2018-11-04T08:48:00.110Z,1015.03
2018-11-04T08:49:00.080Z,1015.04
2018-11-04T08:50:00.049Z,1014.97
2018-11-04T08:51:00.019Z,1015.03
2018-11-04T08:51:59.991Z,1015.02
2018-11-04T08:53:00.526Z,1015.02
2018-11-04T08:53:59.927Z,1014.98
2018-11-04T08:54:59.898Z,1015.02
2018-11-04T08:55:59.869Z,1015.06
2018-11-04T08:56:59.840Z,1015.00
2018-11-04T08:57:59.809Z,1015.00
2018-11-04T08:58:59.779Z,1014.98
2018-11-04T09:00:00.573Z,1014.94
2018-11-04T09:00:59.719Z,1014.94
2018-11-04T09:01:59.689Z,1014.93
2018-11-04T09:02:59.660Z,1014.92
2018-11-04T09:03:59.629Z,1014.93
2018-11-04T09:04:59.599Z,1014.87
2018-11-04T09:05:59.570Z,1014.83
2018-11-04T09:06:59.539Z,1014.86
2018-11-04T09:07:59.511Z,1014.85
2018-11-04T09:08:59.479Z,1014.83
2018-11-04T09:09:59.448Z,1014.81
2018-11-04T09:10:59.419Z,1014.78
2018-11-04T09:11:59.390Z,1014.79
2018-11-04T09:12:59.361Z,1014.73
2018-11-04T09:13:59.333Z,1014.74
2018-11-04T09:14:59.300Z,1014.72
2018-11-04T09:15:59.272Z,1014.73
2018-11-04T09:16:59.243Z,1014.74
2018-11-04T09:17:59.211Z,1014.75
2018-11-04T09:18:59.181Z,1014.74
2018-11-04T09:19:59.151Z,1014.72
2018-11-04T09:20:59.123Z,1014.73
2018-11-04T09:21:59.226Z,1014.72
2018-11-04T09:22:59.063Z,1014.73
2018-11-04T09:23:59.032Z,1014.69
2018-11-04T09:24:59.009Z,1014.70
2018-11-04T09:25:58.972Z,1014.69
2018-11-04T09:26:58.945Z,1014.68
2018-11-04T09:27:58.913Z,1014.66
2018-11-04T09:28:58.950Z,1014.67
2018-11-04T09:29:58.854Z,1014.67
2018-11-04T09:30:58.825Z,1014.66
2018-11-04T09:31:58.794Z,1014.64
2018-11-04T09:32:58.765Z,1014.65
2018-11-04T09:33:58.734Z,1014.61
2018-11-04T09:34:58.781Z,1014.66
2018-11-04T09:35:58.717Z,1014.64
2018-11-04T09:36:58.648Z,1014.65
2018-11-04T09:37:58.617Z,1014.61
2018-11-04T09:38:58.588Z,1014.62
2018-11-04T09:39:58.557Z,1014.62
2018-11-04T09:40:58.528Z,1014.67
2018-11-04T09:41:58.496Z,1014.66
2018-11-04T09:42:58.469Z,1014.70
2018-11-04T09:43:58.438Z,1014.71
2018-11-04T09:44:58.414Z,1014.66
2018-11-04T09:45:58.378Z,1014.69
2018-11-04T09:46:58.350Z,1014.68
2018-11-04T09:47:58.322Z,1014.64
2018-11-04T09:48:58.292Z,1014.65
2018-11-04T09:49:58.311Z,1014.58
2018-11-04T09:50:58.231Z,1014.61
2018-11-04T09:51:58.203Z,1014.59
2018-11-04T09:52:58.173Z,1014.58
2018-11-04T09:53:58.144Z,1014.56
2018-11-04T09:54:58.114Z,1014.53
2018-11-04T09:55:58.084Z,1014.55
2018-11-04T09:56:58.053Z,1014.56
2018-11-04T09:57:58.025Z,1014.54
2018-11-04T09:58:57.992Z,1014.55
2018-11-04T09:59:57.964Z,1014.55
2018-11-04T10:00:57.935Z,1014.50
2018-11-04T10:01:58.538Z,1014.49
2018-11-04T10:02:57.875Z,1014.48
2018-11-04T10:03:57.846Z,1014.50
2018-11-04T10:04:57.818Z,1014.48
2018-11-04T10:05:57.785Z,1014.51
2018-11-04T10:06:57.773Z,1014.49
2018-11-04T10:07:57.729Z,1014.50
2018-11-04T10:08:57.700Z,1014.49
2018-11-04T10:09:57.669Z,1014.48
2018-11-04T10:10:57.639Z,1014.46
2018-11-04T10:11:57.612Z,1014.43
2018-11-04T10:12:57.579Z,1014.46
2018-11-04T10:13:57.553Z,1014.38
2018-11-04T10:14:57.519Z,1014.38
2018-11-04T10:15:57.493Z,1014.37
2018-11-04T10:16:57.460Z,1014.34
2018-11-04T10:17:57.432Z,1014.30
2018-11-04T10:18:57.436Z,1014.33
2018-11-04T10:19:57.639Z,1014.29
2018-11-04T10:20:57.708Z,1014.31
2018-11-04T10:21:57.320Z,1014.22
2018-11-04T10:22:57.288Z,1014.18
2018-11-04T10:23:57.256Z,1014.20
2018-11-04T10:24:57.227Z,1014.24
2018-11-04T10:25:57.198Z,1014.22
2018-11-04T10:26:57.167Z,1014.24
2018-11-04T10:27:57.137Z,1014.26
2018-11-04T10:28:57.109Z,1014.21
2018-11-04T10:29:57.078Z,1014.22
2018-11-04T10:30:57.055Z,1014.21
2018-11-04T10:31:57.020Z,1014.20
2018-11-04T10:32:56.992Z,1014.20
2018-11-04T10:33:56.961Z,1014.17
2018-11-04T10:34:56.932Z,1014.14
2018-11-04T10:35:56.948Z,1014.16
2018-11-04T10:36:56.873Z,1014.09
2018-11-04T10:37:56.843Z,1014.09
2018-11-04T10:38:56.813Z,1014.08
2018-11-04T10:39:56.785Z,1014.11
2018-11-04T10:40:56.756Z,1014.08
2018-11-04T10:41:56.723Z,1014.09
2018-11-04T10:42:56.698Z,1014.06
2018-11-04T10:43:56.666Z,1014.05
2018-11-04T10:44:56.638Z,1014.05
2018-11-04T10:45:56.607Z,1013.97
2018-11-04T10:46:56.578Z,1013.95
2018-11-04T10:47:56.549Z,1013.97
2018-11-04T10:48:56.519Z,1014.01
2018-11-04T10:49:56.552Z,1013.94
2018-11-04T10:50:56.460Z,1013.93
2018-11-04T10:51:56.431Z,1013.91
2018-11-04T10:52:56.401Z,1013.88
2018-11-04T10:53:56.371Z,1013.88
2018-11-04T10:54:56.341Z,1013.85
2018-11-04T10:55:56.414Z,1013.85
2018-11-04T10:56:56.281Z,1013.83
2018-11-04T10:57:56.250Z,1013.83
2018-11-04T10:58:56.224Z,1013.84
2018-11-04T10:59:56.194Z,1013.81
2018-11-04T11:00:56.165Z,1013.86
2018-11-04T11:01:56.135Z,1013.87
2018-11-04T11:02:56.106Z,1013.85
2018-11-04T11:03:56.076Z,1013.85
2018-11-04T11:04:56.049Z,1013.85
2018-11-04T11:05:56.016Z,1013.83
2018-11-04T11:06:56.548Z,1013.82
2018-11-04T11:07:55.956Z,1013.85
2018-11-04T11:08:55.931Z,1013.83
2018-11-04T11:09:55.898Z,1013.79
2018-11-04T11:10:55.906Z,1013.78
2018-11-04T11:11:55.840Z,1013.75
2018-11-04T11:12:55.810Z,1013.74
2018-11-04T11:13:55.784Z,1013.76
2018-11-04T11:14:55.749Z,1013.77
2018-11-04T11:15:55.719Z,1013.77
2018-11-04T11:16:55.692Z,1013.74
2018-11-04T11:17:55.662Z,1013.75
2018-11-04T11:18:55.633Z,1013.75
2018-11-04T11:19:55.605Z,1013.72
2018-11-04T11:20:55.574Z,1013.70
2018-11-04T11:21:55.545Z,1013.68
2018-11-04T11:22:55.695Z,1013.67
2018-11-04T11:23:55.485Z,1013.71
2018-11-04T11:24:55.455Z,1013.68
2018-11-04T11:25:55.431Z,1013.71
2018-11-04T11:26:55.399Z,1013.66
2018-11-04T11:27:55.369Z,1013.67
2018-11-04T11:28:55.338Z,1013.65
2018-11-04T11:29:55.364Z,1013.67
2018-11-04T11:30:55.280Z,1013.60
2018-11-04T11:31:55.250Z,1013.59
2018-11-04T11:32:55.223Z,1013.50
2018-11-04T11:33:55.192Z,1013.49
2018-11-04T11:34:55.161Z,1013.52
2018-11-04T11:35:55.128Z,1013.51
2018-11-04T11:36:55.100Z,1013.48
2018-11-04T11:37:55.216Z,1013.47
2018-11-04T11:38:55.041Z,1013.49
2018-11-04T11:39:55.015Z,1013.47
2018-11-04T11:40:54.995Z,1013.48
2018-11-04T11:41:54.954Z,1013.51
2018-11-04T11:42:54.924Z,1013.50
2018-11-04T11:43:54.896Z,1013.43
2018-11-04T11:44:54.936Z,1013.46
2018-11-04T11:45:54.835Z,1013.45
2018-11-04T11:46:54.807Z,1013.41
2018-11-04T11:47:54.781Z,1013.40
2018-11-04T11:48:54.748Z,1013.34
2018-11-04T11:49:54.718Z,1013.35
2018-11-04T11:50:54.689Z,1013.32
2018-11-04T11:51:54.663Z,1013.30
2018-11-04T11:52:54.631Z,1013.29
2018-11-04T11:53:54.600Z,1013.27
2018-11-04T11:54:54.571Z,1013.25
2018-11-04T11:55:54.542Z,1013.25
2018-11-04T11:56:54.513Z,1013.26
2018-11-04T11:57:54.482Z,1013.20
2018-11-04T11:58:54.452Z,1013.19
2018-11-04T11:59:54.424Z,1013.18
2018-11-04T12:00:54.400Z,1013.13
2018-11-04T12:01:54.364Z,1013.10
2018-11-04T12:02:54.336Z,1013.13
2018-11-04T12:03:54.306Z,1013.11
2018-11-04T12:04:54.276Z,1013.12
2018-11-04T12:05:54.247Z,1013.09
2018-11-04T12:06:54.220Z,1013.13
2018-11-04T12:07:54.190Z,1013.15
2018-11-04T12:08:54.160Z,1013.11
2018-11-04T12:09:54.129Z,1013.13
2018-11-04T12:10:54.101Z,1013.08
2018-11-04T12:11:54.071Z,1013.04
2018-11-04T12:12:54.043Z,1013.03
2018-11-04T12:13:54.012Z,1013.02
2018-11-04T12:14:53.987Z,1012.99
2018-11-04T12:15:53.953Z,1012.99
2018-11-04T12:16:53.929Z,1012.94
2018-11-04T12:17:53.989Z,1012.94
2018-11-04T12:18:53.866Z,1012.94
2018-11-04T12:19:53.839Z,1012.92
2018-11-04T12:20:53.810Z,1012.85
2018-11-04T12:21:53.778Z,1012.86
2018-11-04T12:22:53.748Z,1012.86
2018-11-04T12:23:53.755Z,1012.84